createdAt,value
2018-12-25T00:01:19.008Z,2.80
2018-12-25T00:03:47.569Z,2.90
2018-12-25T00:06:16.151Z,2.90
2018-12-25T00:08:44.707Z,2.90
2018-12-25T00:11:13.290Z,3.00
2018-12-25T00:13:41.847Z,3.00
2018-12-25T00:16:10.428Z,3.00
2018-12-25T00:18:38.982Z,3.00
2018-12-25T00:21:07.563Z,3.00
2018-12-25T00:23:36.125Z,3.10
2018-12-25T00:26:04.714Z,3.10
2018-12-25T00:28:33.268Z,3.10
2018-12-25T00:31:01.828Z,3.10
2018-12-25T00:33:30.403Z,3.20
2018-12-25T00:35:58.971Z,3.20
2018-12-25T00:38:27.547Z,3.20
2018-12-25T00:40:56.107Z,3.20
2018-12-25T00:43:24.696Z,3.30
2018-12-25T00:45:53.263Z,3.30
2018-12-25T00:48:21.836Z,3.30
2018-12-25T00:50:50.399Z,3.30
2018-12-25T00:53:18.983Z,3.30
2018-12-25T00:55:47.544Z,3.40
2018-12-25T00:58:16.131Z,3.40
2018-12-25T01:00:44.696Z,3.40
2018-12-25T01:03:13.281Z,3.40
2018-12-25T01:05:41.845Z,3.40
2018-12-25T01:08:10.495Z,3.40
2018-12-25T01:10:39.057Z,3.40
2018-12-25T01:13:07.642Z,3.40
2018-12-25T01:15:36.206Z,3.40
2018-12-25T01:18:04.788Z,3.40
2018-12-25T01:20:33.347Z,3.40
2018-12-25T01:23:01.930Z,3.40
2018-12-25T01:25:30.489Z,3.40
2018-12-25T01:27:59.068Z,3.40
2018-12-25T01:30:27.627Z,3.40
2018-12-25T01:32:56.215Z,3.40
2018-12-25T01:35:24.772Z,3.50
2018-12-25T01:37:53.355Z,3.50
2018-12-25T01:40:21.915Z,3.50
2018-12-25T01:42:50.502Z,3.50
2018-12-25T01:45:19.058Z,3.50
2018-12-25T01:47:47.639Z,3.50
2018-12-25T01:50:16.202Z,3.50
2018-12-25T01:52:44.783Z,3.50
2018-12-25T01:55:13.345Z,3.50
2018-12-25T01:57:41.927Z,3.50
2018-12-25T02:00:10.492Z,3.50
2018-12-25T02:02:39.067Z,3.50
2018-12-25T02:05:07.623Z,3.50
2018-12-25T02:07:36.209Z,3.50
2018-12-25T02:10:05.032Z,3.50
2018-12-25T02:12:33.611Z,3.50
2018-12-25T02:15:02.172Z,3.50
2018-12-25T02:17:30.756Z,3.50
2018-12-25T02:19:59.948Z,3.50
2018-12-25T02:22:28.535Z,3.50
2018-12-25T02:24:57.096Z,3.50
2018-12-25T02:27:25.688Z,3.50
2018-12-25T02:29:54.250Z,3.50
2018-12-25T02:32:22.832Z,3.50
2018-12-25T02:34:51.393Z,3.50
2018-12-25T02:37:19.964Z,3.50
2018-12-25T02:39:48.531Z,3.50
2018-12-25T02:42:17.109Z,3.50
2018-12-25T02:44:45.677Z,3.50
2018-12-25T02:47:14.264Z,3.50
2018-12-25T02:49:50.175Z,3.50
2018-12-25T02:52:13.061Z,3.50
2018-12-25T02:54:41.618Z,3.50
2018-12-25T02:57:10.177Z,3.40
2018-12-25T02:59:38.757Z,3.40
2018-12-25T03:02:07.320Z,3.40
2018-12-25T03:04:35.904Z,3.40
2018-12-25T03:07:04.459Z,3.40
2018-12-25T03:09:33.043Z,3.40
2018-12-25T03:12:01.611Z,3.40
2018-12-25T03:14:30.181Z,3.40
2018-12-25T03:16:58.733Z,3.30
2018-12-25T03:19:27.311Z,3.40
2018-12-25T03:21:55.882Z,3.30
2018-12-25T03:24:24.460Z,3.30
2018-12-25T03:26:53.036Z,3.30
2018-12-25T03:29:21.609Z,3.30
2018-12-25T03:31:50.169Z,3.30
2018-12-25T03:34:18.748Z,3.30
2018-12-25T03:36:47.321Z,3.30
2018-12-25T03:39:15.897Z,3.30
2018-12-25T03:41:44.456Z,3.30
2018-12-25T03:44:13.041Z,3.30
2018-12-25T03:46:41.599Z,3.20
2018-12-25T03:49:10.175Z,3.20
2018-12-25T03:51:38.737Z,3.30
2018-12-25T03:54:07.316Z,3.30
2018-12-25T03:56:35.881Z,3.30
2018-12-25T03:59:04.470Z,3.30
2018-12-25T04:01:33.023Z,3.30
2018-12-25T04:04:01.609Z,3.30
2018-12-25T04:06:30.167Z,3.30
2018-12-25T04:08:58.747Z,3.20
2018-12-25T04:11:27.310Z,3.20
2018-12-25T04:13:55.894Z,3.20
2018-12-25T04:16:24.448Z,3.20
2018-12-25T04:18:53.027Z,3.20
2018-12-25T04:21:21.583Z,3.20
2018-12-25T04:23:50.172Z,3.20
2018-12-25T04:26:18.732Z,3.20
2018-12-25T04:28:47.323Z,3.20
2018-12-25T04:31:15.879Z,3.20
2018-12-25T04:33:44.464Z,3.20
2018-12-25T04:36:13.019Z,3.20
2018-12-25T04:38:41.604Z,3.20
2018-12-25T04:41:10.164Z,3.20
2018-12-25T04:43:38.744Z,3.20
2018-12-25T04:46:07.310Z,3.20
2018-12-25T04:48:35.896Z,3.20
2018-12-25T04:51:04.453Z,3.20
2018-12-25T04:53:33.040Z,3.20
2018-12-25T04:56:01.596Z,3.20
2018-12-25T04:58:30.256Z,3.20
2018-12-25T05:00:58.747Z,3.20
2018-12-25T05:03:27.324Z,3.20
2018-12-25T05:05:55.889Z,3.30
2018-12-25T05:08:24.475Z,3.30
2018-12-25T05:10:53.027Z,3.30
2018-12-25T05:13:21.611Z,3.30
2018-12-25T05:15:50.168Z,3.30
2018-12-25T05:18:18.754Z,3.30
2018-12-25T05:20:47.311Z,3.30
2018-12-25T05:23:15.878Z,3.40
2018-12-25T05:25:44.454Z,3.40
2018-12-25T05:28:13.012Z,3.40
2018-12-25T05:30:41.596Z,3.40
2018-12-25T05:33:10.156Z,3.40
2018-12-25T05:35:38.736Z,3.50
2018-12-25T05:38:07.297Z,3.50
2018-12-25T05:40:35.877Z,3.50
2018-12-25T05:43:04.435Z,3.50
2018-12-25T05:45:33.015Z,3.50
2018-12-25T05:48:01.572Z,3.50
2018-12-25T05:50:30.156Z,3.50
2018-12-25T05:52:58.720Z,3.50
2018-12-25T05:55:27.305Z,3.50
2018-12-25T05:57:55.862Z,3.50
2018-12-25T06:00:24.444Z,3.50
2018-12-25T06:02:53.004Z,3.50
2018-12-25T06:05:21.579Z,3.40
2018-12-25T06:07:50.143Z,3.40
2018-12-25T06:10:18.724Z,3.40
2018-12-25T06:12:47.284Z,3.40
2018-12-25T06:15:15.868Z,3.40
2018-12-25T06:17:44.427Z,3.40
2018-12-25T06:20:13.417Z,3.40
2018-12-25T06:22:41.972Z,3.40
2018-12-25T06:25:10.558Z,3.50
2018-12-25T06:27:39.115Z,3.50
2018-12-25T06:30:08.168Z,3.50
2018-12-25T06:32:36.735Z,3.50
2018-12-25T06:35:05.384Z,3.50
2018-12-25T06:37:33.947Z,3.50
2018-12-25T06:40:02.536Z,3.50
2018-12-25T06:42:31.093Z,3.50
2018-12-25T06:44:59.674Z,3.50
2018-12-25T06:47:28.244Z,3.50
2018-12-25T06:49:56.828Z,3.50
2018-12-25T06:52:25.392Z,3.50
2018-12-25T06:54:53.976Z,3.40
2018-12-25T06:57:22.540Z,3.50
2018-12-25T06:59:51.111Z,3.40
2018-12-25T07:02:19.713Z,3.40
2018-12-25T07:04:48.265Z,3.50
2018-12-25T07:07:16.834Z,3.40
2018-12-25T07:09:45.422Z,3.40
2018-12-25T07:12:13.981Z,3.40
2018-12-25T07:14:42.630Z,3.40
2018-12-25T07:17:11.190Z,3.40
2018-12-25T07:19:39.771Z,3.40
2018-12-25T07:22:08.340Z,3.40
2018-12-25T07:24:36.919Z,3.40
2018-12-25T07:27:05.589Z,3.50
2018-12-25T07:29:34.174Z,3.40
2018-12-25T07:32:02.742Z,3.50
2018-12-25T07:34:31.327Z,3.50
2018-12-25T07:36:59.889Z,3.50
2018-12-25T07:39:28.475Z,3.50
2018-12-25T07:41:57.036Z,3.50
2018-12-25T07:44:25.618Z,3.50
2018-12-25T07:46:54.181Z,3.50
2018-12-25T07:49:22.748Z,3.50
2018-12-25T07:51:51.328Z,3.60
2018-12-25T07:54:19.894Z,3.60
2018-12-25T07:56:48.480Z,3.60
2018-12-25T07:59:17.041Z,3.70
2018-12-25T08:01:45.628Z,3.70
2018-12-25T08:04:14.183Z,3.70
2018-12-25T08:06:42.765Z,3.70
2018-12-25T08:09:11.324Z,3.70
2018-12-25T08:11:39.908Z,3.80
2018-12-25T08:14:08.467Z,3.80
2018-12-25T08:16:37.047Z,3.80
2018-12-25T08:19:05.604Z,3.80
2018-12-25T08:21:34.187Z,3.80
2018-12-25T08:24:02.751Z,3.80
2018-12-25T08:26:31.330Z,3.80
2018-12-25T08:28:59.892Z,3.80
2018-12-25T08:31:28.487Z,3.80
2018-12-25T08:33:57.041Z,3.90
2018-12-25T08:36:25.625Z,3.80
2018-12-25T08:38:54.188Z,3.80
2018-12-25T08:41:22.767Z,3.90
2018-12-25T08:43:51.332Z,3.90
2018-12-25T08:46:19.916Z,3.90
2018-12-25T08:48:48.477Z,3.90
2018-12-25T08:51:17.057Z,3.90
2018-12-25T08:53:45.616Z,3.90
2018-12-25T08:56:14.201Z,4.00
2018-12-25T08:58:42.763Z,4.00
2018-12-25T09:01:11.348Z,4.00
2018-12-25T09:03:39.912Z,4.00
2018-12-25T09:06:08.504Z,4.10
2018-12-25T09:08:37.071Z,4.10
2018-12-25T09:11:05.657Z,4.10
2018-12-25T09:13:34.215Z,4.10
2018-12-25T09:16:02.797Z,4.10
2018-12-25T09:18:31.351Z,4.20
2018-12-25T09:20:59.957Z,4.20
2018-12-25T09:23:28.629Z,4.20
2018-12-25T09:25:57.200Z,4.20
2018-12-25T09:28:25.766Z,4.30
2018-12-25T09:30:54.372Z,4.30
2018-12-25T09:33:22.927Z,4.30
2018-12-25T09:35:51.528Z,4.30
2018-12-25T09:38:20.084Z,4.40
2018-12-25T09:40:48.706Z,4.40
2018-12-25T09:43:17.267Z,4.40
2018-12-25T09:45:45.850Z,4.50
2018-12-25T09:48:14.411Z,4.50
2018-12-25T09:50:42.983Z,4.50
2018-12-25T09:53:11.539Z,4.50
2018-12-25T09:55:40.130Z,4.50
2018-12-25T09:58:08.684Z,4.60
2018-12-25T10:00:38.309Z,4.60
2018-12-25T10:03:06.928Z,4.70
2018-12-25T10:05:35.513Z,4.70
2018-12-25T10:08:04.080Z,4.80
2018-12-25T10:10:32.658Z,4.90
2018-12-25T10:13:01.296Z,4.90
2018-12-25T10:15:29.870Z,5.00
2018-12-25T10:17:59.595Z,5.00
2018-12-25T10:20:28.377Z,5.10
2018-12-25T10:22:56.901Z,5.10
2018-12-25T10:25:25.464Z,5.10
2018-12-25T10:27:54.048Z,5.20
2018-12-25T10:30:22.616Z,5.20
2018-12-25T10:32:51.203Z,5.20
2018-12-25T10:35:19.770Z,5.20
2018-12-25T10:37:49.151Z,5.30
2018-12-25T10:40:17.700Z,5.30
2018-12-25T10:42:46.285Z,5.30
2018-12-25T10:45:14.845Z,5.30
2018-12-25T10:47:43.430Z,5.40
2018-12-25T10:50:12.137Z,5.40
2018-12-25T10:52:40.715Z,5.40
2018-12-25T10:55:09.272Z,5.40
2018-12-25T10:57:37.850Z,5.40
2018-12-25T11:00:11.857Z,5.40
2018-12-25T11:02:40.442Z,5.50
2018-12-25T11:05:09.010Z,5.50
2018-12-25T11:07:37.601Z,5.50
2018-12-25T11:10:08.104Z,5.50
2018-12-25T11:12:36.684Z,5.60
2018-12-25T11:15:06.385Z,5.60
2018-12-25T11:17:34.959Z,5.60
2018-12-25T11:20:11.230Z,5.60
2018-12-25T11:22:34.736Z,5.60
2018-12-25T11:25:03.300Z,5.60
2018-12-25T11:27:31.888Z,5.60
2018-12-25T11:30:19.792Z,5.70
2018-12-25T11:33:07.736Z,5.70
2018-12-25T11:35:55.671Z,5.70
2018-12-25T11:38:43.589Z,5.70
2018-12-25T11:41:31.527Z,5.70
2018-12-25T11:44:19.429Z,5.70
2018-12-25T11:47:07.356Z,5.70
2018-12-25T11:49:55.264Z,5.70
2018-12-25T11:53:03.781Z,5.70
2018-12-25T11:55:52.740Z,5.70
2018-12-25T11:58:40.664Z,5.70
2018-12-25T12:01:28.589Z,5.70
2018-12-25T12:04:16.488Z,5.70
2018-12-25T12:07:04.415Z,5.70
2018-12-25T12:09:52.406Z,5.70
2018-12-25T12:12:40.333Z,5.60
2018-12-25T12:15:28.309Z,5.60
2018-12-25T12:18:16.160Z,5.60
2018-12-25T12:20:57.323Z,5.60
2018-12-25T12:23:37.936Z,5.60
2018-12-25T12:26:18.912Z,5.60
2018-12-25T12:28:59.744Z,5.60
2018-12-25T12:31:40.455Z,5.60
2018-12-25T12:34:21.023Z,5.60
2018-12-25T12:37:01.992Z,5.60
2018-12-25T12:39:42.837Z,5.60
2018-12-25T12:42:24.259Z,5.60
2018-12-25T12:45:05.071Z,5.60
2018-12-25T12:47:45.861Z,5.50
2018-12-25T12:50:26.785Z,5.50
2018-12-25T12:53:07.801Z,5.50
2018-12-25T12:55:48.599Z,5.50
2018-12-25T12:58:29.388Z,5.50
2018-12-25T13:01:09.928Z,5.50
2018-12-25T13:03:50.811Z,5.60
2018-12-25T13:06:31.699Z,5.60
2018-12-25T13:09:12.796Z,5.50
2018-12-25T13:11:54.051Z,5.60
2018-12-25T13:14:34.863Z,5.60
2018-12-25T13:17:15.993Z,5.60
2018-12-25T13:19:56.913Z,5.60
2018-12-25T13:22:37.801Z,5.60
2018-12-25T13:25:18.408Z,5.60
2018-12-25T13:27:59.348Z,5.60
2018-12-25T13:30:39.965Z,5.60
2018-12-25T13:33:20.958Z,5.60
2018-12-25T13:36:01.721Z,5.60
2018-12-25T13:38:42.395Z,5.60
2018-12-25T13:41:22.920Z,5.60
2018-12-25T13:44:03.532Z,5.60
2018-12-25T13:46:51.597Z,5.60
2018-12-25T13:49:27.193Z,5.60
2018-12-25T13:52:07.884Z,5.60
2018-12-25T13:54:48.823Z,5.60
2018-12-25T13:57:30.068Z,5.60
2018-12-25T14:00:10.941Z,5.60
2018-12-25T14:02:52.014Z,5.50
2018-12-25T14:05:32.960Z,5.60
2018-12-25T14:08:13.905Z,5.60
2018-12-25T14:10:54.853Z,5.60
2018-12-25T14:13:35.395Z,5.60
2018-12-25T14:16:15.887Z,5.50
2018-12-25T14:18:56.549Z,5.50
2018-12-25T14:21:37.473Z,5.50
2018-12-25T14:24:18.165Z,5.50
2018-12-25T14:26:59.243Z,5.50
2018-12-25T14:29:39.555Z,5.50
2018-12-25T14:32:20.523Z,5.50
2018-12-25T14:35:01.372Z,5.50
2018-12-25T14:37:42.264Z,5.40
2018-12-25T14:40:22.745Z,5.50
2018-12-25T14:43:03.628Z,5.40
2018-12-25T14:45:44.221Z,5.40
2018-12-25T14:48:24.689Z,5.40
2018-12-25T14:51:05.162Z,5.40
2018-12-25T14:53:45.768Z,5.40
2018-12-25T14:56:26.417Z,5.40
2018-12-25T14:59:07.141Z,5.40
2018-12-25T15:01:47.763Z,5.40
2018-12-25T15:04:28.924Z,5.40
2018-12-25T15:07:09.576Z,5.40
2018-12-25T15:09:50.178Z,5.40
2018-12-25T15:12:30.844Z,5.30
2018-12-25T15:15:11.375Z,5.30
2018-12-25T15:17:51.897Z,5.30
2018-12-25T15:20:32.460Z,5.30
2018-12-25T15:23:13.328Z,5.30
2018-12-25T15:25:53.723Z,5.30
2018-12-25T15:28:34.661Z,5.30
2018-12-25T15:31:15.501Z,5.30
2018-12-25T15:33:56.039Z,5.20
2018-12-25T15:36:36.394Z,5.20
2018-12-25T15:39:16.900Z,5.20
2018-12-25T15:41:57.491Z,5.20
2018-12-25T15:44:38.521Z,5.20
2018-12-25T15:47:19.473Z,5.20
2018-12-25T15:50:00.297Z,5.20
2018-12-25T15:52:41.124Z,5.20
2018-12-25T15:55:22.141Z,5.20
2018-12-25T15:58:03.007Z,5.20
2018-12-25T16:00:43.903Z,5.20
2018-12-25T16:03:24.409Z,5.10
2018-12-25T16:06:05.577Z,5.10
2018-12-25T16:08:46.480Z,5.10
2018-12-25T16:11:27.005Z,5.10
2018-12-25T16:14:07.892Z,5.10
2018-12-25T16:16:48.259Z,5.10
2018-12-25T16:19:29.022Z,5.10
2018-12-25T16:22:09.426Z,5.10
2018-12-25T16:24:50.052Z,5.00
2018-12-25T16:27:31.343Z,5.10
2018-12-25T16:30:12.132Z,5.00
2018-12-25T16:32:52.524Z,5.00
2018-12-25T16:35:33.109Z,5.00
2018-12-25T16:38:01.669Z,5.00
2018-12-25T16:40:30.358Z,5.00
2018-12-25T16:42:58.911Z,5.00
2018-12-25T16:45:27.941Z,5.00
2018-12-25T16:47:58.568Z,4.90
2018-12-25T16:50:26.788Z,5.00
2018-12-25T16:52:55.391Z,4.90
2018-12-25T16:55:23.982Z,4.90
2018-12-25T16:57:52.544Z,4.90
2018-12-25T17:00:21.125Z,4.90
2018-12-25T17:02:49.684Z,4.90
2018-12-25T17:05:18.281Z,4.90
2018-12-25T17:07:46.835Z,4.90
2018-12-25T17:10:15.415Z,4.90
2018-12-25T17:12:43.981Z,4.90
2018-12-25T17:15:12.577Z,4.90
2018-12-25T17:17:41.127Z,4.90
2018-12-25T17:20:09.833Z,4.90
2018-12-25T17:22:38.377Z,4.90
2018-12-25T17:25:06.964Z,4.90
2018-12-25T17:27:35.534Z,4.90
2018-12-25T17:30:04.876Z,4.90
2018-12-25T17:32:33.444Z,4.90
2018-12-25T17:35:02.032Z,4.90
2018-12-25T17:37:30.592Z,4.90
2018-12-25T17:39:59.179Z,4.90
2018-12-25T17:42:27.737Z,4.90
2018-12-25T17:44:56.319Z,4.90
2018-12-25T17:47:24.880Z,4.90
2018-12-25T17:49:53.484Z,4.90
2018-12-25T17:52:22.049Z,4.90
2018-12-25T17:54:50.644Z,4.90
2018-12-25T17:57:19.208Z,4.90
2018-12-25T17:59:47.789Z,4.90
2018-12-25T18:02:16.347Z,5.00
2018-12-25T18:04:44.930Z,5.00
2018-12-25T18:07:13.496Z,5.00
2018-12-25T18:09:42.080Z,5.00
2018-12-25T18:12:10.742Z,5.00
2018-12-25T18:14:39.321Z,4.90
2018-12-25T18:17:07.888Z,4.90
2018-12-25T18:19:36.464Z,5.00
2018-12-25T18:22:05.028Z,5.00
2018-12-25T18:24:33.613Z,5.00
2018-12-25T18:27:02.244Z,5.00
2018-12-25T18:29:30.827Z,5.00
2018-12-25T18:31:59.390Z,5.00
2018-12-25T18:34:27.970Z,5.00
2018-12-25T18:36:56.523Z,5.00
2018-12-25T18:39:25.084Z,4.90
2018-12-25T18:41:53.666Z,4.90
2018-12-25T18:44:22.229Z,4.90
2018-12-25T18:46:50.816Z,4.90
2018-12-25T18:49:19.384Z,4.90
2018-12-25T18:51:48.031Z,4.90
2018-12-25T18:54:16.584Z,4.90
2018-12-25T18:56:45.163Z,4.90
2018-12-25T18:59:13.725Z,4.90
2018-12-25T19:01:42.317Z,4.90
2018-12-25T19:04:10.872Z,4.90
2018-12-25T19:06:39.452Z,4.90
2018-12-25T19:09:08.013Z,4.90
2018-12-25T19:11:36.596Z,4.90
2018-12-25T19:14:05.159Z,4.90
2018-12-25T19:16:34.112Z,4.90
2018-12-25T19:19:02.676Z,4.90
2018-12-25T19:21:31.259Z,4.90
2018-12-25T19:23:59.823Z,4.90
2018-12-25T19:26:28.409Z,4.90
2018-12-25T19:28:56.965Z,4.90
2018-12-25T19:31:25.542Z,4.90
2018-12-25T19:33:54.104Z,4.90
2018-12-25T19:36:22.696Z,4.90
2018-12-25T19:38:51.256Z,4.90
2018-12-25T19:41:19.835Z,4.90
2018-12-25T19:43:48.394Z,4.90
2018-12-25T19:46:17.037Z,4.90
2018-12-25T19:48:45.600Z,4.90
2018-12-25T19:51:14.322Z,4.90
2018-12-25T19:53:42.879Z,4.90
2018-12-25T19:56:11.475Z,4.90
2018-12-25T19:58:40.028Z,5.00
2018-12-25T20:01:08.680Z,4.90
2018-12-25T20:03:39.679Z,4.90
2018-12-25T20:06:34.093Z,5.00
2018-12-25T20:09:05.728Z,5.00
2018-12-25T20:11:52.544Z,5.00
2018-12-25T20:14:36.268Z,5.00
2018-12-25T20:17:13.691Z,5.00
2018-12-25T20:20:05.106Z,5.00
2018-12-25T20:22:59.484Z,5.00
2018-12-25T20:25:59.952Z,5.10
2018-12-25T20:28:37.376Z,5.10
2018-12-25T20:31:28.439Z,5.10
2018-12-25T20:34:14.908Z,5.10
2018-12-25T20:36:49.271Z,5.10
2018-12-25T20:39:42.064Z,5.10
2018-12-25T20:42:39.460Z,5.10
2018-12-25T20:45:13.669Z,5.10
2018-12-25T20:48:20.347Z,5.10
2018-12-25T20:51:00.676Z,5.10
2018-12-25T20:54:05.609Z,5.10
2018-12-25T20:56:53.848Z,5.10
2018-12-25T20:59:25.485Z,5.10
2018-12-25T21:02:19.454Z,5.10
2018-12-25T21:05:03.048Z,5.10
2018-12-25T21:07:37.220Z,5.20
2018-12-25T21:10:25.076Z,5.20
2018-12-25T21:13:30.413Z,5.20
2018-12-25T21:16:24.405Z,5.20
2018-12-25T21:19:23.149Z,5.20
2018-12-25T21:21:54.809Z,5.20
2018-12-25T21:24:59.892Z,5.20
2018-12-25T21:27:30.544Z,5.20
2018-12-25T21:30:00.953Z,5.20
2018-12-25T21:32:31.076Z,5.20
2018-12-25T21:35:08.637Z,5.20
2018-12-25T21:37:37.293Z,5.20
2018-12-25T21:40:07.197Z,5.20
2018-12-25T21:42:36.124Z,5.20
2018-12-25T21:45:06.527Z,5.20
2018-12-25T21:47:35.107Z,5.30
2018-12-25T21:50:04.920Z,5.20
2018-12-25T21:52:33.832Z,5.20
2018-12-25T21:55:02.393Z,5.30
2018-12-25T21:57:30.977Z,5.30
2018-12-25T21:59:59.535Z,5.30
2018-12-25T22:02:28.460Z,5.30
2018-12-25T22:04:57.092Z,5.30
2018-12-25T22:07:25.677Z,5.30
2018-12-25T22:09:54.236Z,5.30
2018-12-25T22:12:22.820Z,5.30
2018-12-25T22:14:51.480Z,5.30
2018-12-25T22:17:20.062Z,5.30
2018-12-25T22:19:48.623Z,5.30
2018-12-25T22:22:17.204Z,5.30
2018-12-25T22:24:45.773Z,5.30
2018-12-25T22:27:14.346Z,5.30
2018-12-25T22:29:42.912Z,5.30
2018-12-25T22:32:11.501Z,5.30
2018-12-25T22:34:40.068Z,5.30
2018-12-25T22:37:08.648Z,5.30
2018-12-25T22:39:37.219Z,5.30
2018-12-25T22:42:05.801Z,5.30
2018-12-25T22:44:34.367Z,5.30
2018-12-25T22:47:02.957Z,5.30
2018-12-25T22:49:31.522Z,5.30
2018-12-25T22:52:00.141Z,5.30
2018-12-25T22:54:28.680Z,5.30
2018-12-25T22:56:57.260Z,5.30
2018-12-25T22:59:25.829Z,5.30
2018-12-25T23:01:54.421Z,5.30
2018-12-25T23:04:22.984Z,5.30
2018-12-25T23:06:51.576Z,5.30
2018-12-25T23:09:20.144Z,5.20
2018-12-25T23:11:48.737Z,5.20
2018-12-25T23:14:17.287Z,5.20
2018-12-25T23:16:45.877Z,5.20
2018-12-25T23:19:14.439Z,5.20
2018-12-25T23:21:43.033Z,5.20
2018-12-25T23:24:11.600Z,5.20
2018-12-25T23:26:40.187Z,5.20
2018-12-25T23:29:08.782Z,5.20
2018-12-25T23:31:37.319Z,5.10
2018-12-25T23:34:05.903Z,5.20
2018-12-25T23:36:34.475Z,5.10
2018-12-25T23:39:03.063Z,5.10
2018-12-25T23:41:31.632Z,5.10
2018-12-25T23:44:00.221Z,5.10
2018-12-25T23:46:28.783Z,5.10
2018-12-25T23:48:57.380Z,5.10
2018-12-25T23:51:25.947Z,5.10
2018-12-25T23:53:54.599Z,5.10
2018-12-25T23:56:23.177Z,5.10
2018-12-25T23:58:51.789Z,5.10
